Time;durP1;ratioP1;P1;durP2;ratioP2;P2;SDS_P1;SDS_P2;PMS_P1;PMS_P2;Temp;Humidity;BMP_temperature;BMP_pressure;BME280_temperature;BME280_humidity;BME280_pressure;Samples;Min_cycle;Max_cycle;Signal;HPM_P1;HPM_P2
2022/10/07 00:01:11;;;;;;;;;;;;;;;14.14;59.96;101067.09;4377096;32;19990;-96
2022/10/07 00:03:36;;;;;;;;;;;;;;;14.20;59.96;101068.75;4367313;32;20010;-94
2022/10/07 00:06:03;;;;;;;;;;;;;;;14.20;59.97;101068.75;4394405;32;19971;-94
2022/10/07 00:08:28;;;;;;;;;;;;;;;14.05;59.96;101069.97;4394461;32;19970;-93
2022/10/07 00:10:54;;;;;;;;;;;;;;;14.04;59.96;101070.87;4387487;32;19962;-96
2022/10/07 00:13:19;;;;;;;;;;;;;;;14.19;59.96;101065.22;4361251;32;19987;-96
2022/10/07 00:15:45;;;;;;;;;;;;;;;14.18;59.96;101066.12;4373707;32;19998;-96
2022/10/07 00:18:10;;;;;;;;;;;;;;;14.13;59.96;101062.78;4361911;32;19994;-96
2022/10/07 00:20:36;;;;;;;;;;;;;;;14.16;59.96;101060.06;4361006;32;20053;-96
2022/10/07 00:23:01;;;;;;;;;;;;;;;13.85;59.94;101069.59;4372219;32;19983;-96
2022/10/07 00:25:27;;;;;;;;;;;;;;;13.96;59.95;101058.00;4355600;33;20008;-96
2022/10/07 00:27:52;;;;;;;;;;;;;;;13.91;59.95;101065.06;4388062;32;19977;-95
2022/10/07 00:30:20;;;;;;;;;;;;;;;13.60;59.93;101057.09;4378191;32;19982;-95
2022/10/07 00:32:48;;;;;;;;;;;;;;;13.64;59.94;101061.38;4373999;32;20007;-96
2022/10/07 00:35:13;;;;;;;;;;;;;;;13.54;59.92;101056.41;4377266;32;19980;-96
2022/10/07 00:37:41;;;;;;;;;;;;;;;13.59;59.93;101065.00;4365181;32;20075;-96
2022/10/07 00:40:08;;;;;;;;;;;;;;;13.55;59.93;101061.59;4365530;32;19969;-96
2022/10/07 00:42:34;;;;;;;;;;;;;;;13.50;59.93;101053.00;4377602;32;19963;-96
2022/10/07 00:44:59;;;;;;;;;;;;;;;13.59;59.93;101057.16;4378244;32;19981;-96
2022/10/07 00:47:31;;;;;;;;;;;;;;;13.49;59.93;101052.12;4378026;32;19999;-96
2022/10/07 00:50:02;;;;;;;;;;;;;;;13.57;59.92;101051.09;4377897;32;20007;-96
2022/10/07 00:52:31;;;;;;;;;;;;;;;13.65;59.94;101047.37;4377308;32;19960;-96
2022/10/07 00:54:56;;;;;;;;;;;;;;;13.75;59.94;101048.91;4377777;32;19963;-94
2022/10/07 00:57:22;;;;;;;;;;;;;;;13.63;59.93;101050.94;4383370;32;19966;-96
2022/10/07 00:59:47;;;;;;;;;;;;;;;13.61;59.93;101044.88;4391976;32;19993;-96
2022/10/07 01:02:14;;;;;;;;;;;;;;;13.69;59.93;101049.03;4373825;32;20006;-96
2022/10/07 01:04:39;;;;;;;;;;;;;;;13.76;59.93;101042.78;4373750;32;19955;-96
2022/10/07 01:07:04;;;;;;;;;;;;;;;13.65;59.94;101046.53;4376602;32;19994;-96
2022/10/07 01:09:30;;;;;;;;;;;;;;;13.71;59.93;101047.22;4378568;32;19990;-93
2022/10/07 01:11:58;;;;;;;;;;;;;;;13.69;59.93;101046.41;4367031;32;20010;-94
2022/10/07 01:14:38;;;;;;;;;;;;;;;13.71;59.94;101035.91;4379605;32;19963;-96
2022/10/07 01:17:08;;;;;;;;;;;;;;;13.67;59.93;101037.75;4376785;32;19995;-96
2022/10/07 01:19:39;;;;;;;;;;;;;;;13.55;59.92;101043.28;4363995;32;19955;-96
2022/10/07 01:22:04;;;;;;;;;;;;;;;13.47;59.92;101045.19;4375048;32;19965;-96
2022/10/07 01:24:37;;;;;;;;;;;;;;;13.68;59.93;101035.97;4376291;32;19979;-96
2022/10/07 01:27:03;;;;;;;;;;;;;;;13.66;59.93;101032.53;4366732;32;19955;-96
2022/10/07 01:29:38;;;;;;;;;;;;;;;13.62;59.93;101037.00;4378886;32;19959;-96
2022/10/07 01:32:05;;;;;;;;;;;;;;;13.53;59.92;101042.47;4366524;32;19963;-95
2022/10/07 01:34:31;;;;;;;;;;;;;;;13.49;59.93;101040.81;4365062;32;19963;-96
2022/10/07 01:36:57;;;;;;;;;;;;;;;13.41;59.91;101034.88;4366712;32;19987;-95
2022/10/07 01:39:23;;;;;;;;;;;;;;;13.53;59.92;101039.84;4368670;32;19985;-96
2022/10/07 01:41:49;;;;;;;;;;;;;;;13.50;59.93;101039.91;4366591;32;19964;-96
2022/10/07 01:44:14;;;;;;;;;;;;;;;13.54;59.92;101044.19;4355345;32;19991;-96
2022/10/07 01:46:39;;;;;;;;;;;;;;;13.56;59.92;101038.91;4378926;32;19982;-95
2022/10/07 01:49:08;;;;;;;;;;;;;;;13.48;59.92;101034.69;4379241;32;19951;-91
2022/10/07 01:51:34;;;;;;;;;;;;;;;13.57;59.92;101032.78;4366893;32;20036;-90
2022/10/07 01:54:01;;;;;;;;;;;;;;;13.58;59.93;101031.88;4366680;32;19951;-96
2022/10/07 01:56:32;;;;;;;;;;;;;;;13.45;59.93;101037.37;4379467;32;19956;-94
2022/10/07 01:59:16;;;;;;;;;;;;;;;13.48;59.92;101036.44;4379306;32;19947;-94
2022/10/07 02:02:05;;;;;;;;;;;;;;;13.39;59.92;101031.44;4385752;32;19979;-96
2022/10/07 02:04:34;;;;;;;;;;;;;;;13.30;59.91;101024.69;4383889;32;20005;-96
2022/10/07 02:07:08;;;;;;;;;;;;;;;13.20;59.91;101024.00;4398296;32;19947;-95
2022/10/07 02:09:33;;;;;;;;;;;;;;;13.25;59.91;101031.78;4382638;32;20004;-95
2022/10/07 02:12:02;;;;;;;;;;;;;;;13.32;59.92;101033.34;4388335;32;19951;-96
2022/10/07 02:14:30;;;;;;;;;;;;;;;13.23;59.91;101040.53;4385901;32;19985;-96
2022/10/07 02:16:56;;;;;;;;;;;;;;;13.15;59.90;101041.53;4369765;32;19975;-96
2022/10/07 02:19:22;;;;;;;;;;;;;;;13.26;59.91;101043.09;4379552;32;19998;-95
2022/10/07 02:21:48;;;;;;;;;;;;;;;13.10;59.90;101038.16;4364465;32;20376;-96
2022/10/07 02:24:13;;;;;;;;;;;;;;;13.12;59.91;101043.34;4367372;32;20014;-96
2022/10/07 02:26:39;;;;;;;;;;;;;;;12.97;59.90;101041.06;4378831;32;20309;-96
2022/10/07 02:29:04;;;;;;;;;;;;;;;13.00;59.89;101036.63;4371541;32;19975;-96
2022/10/07 02:31:30;;;;;;;;;;;;;;;12.94;59.89;101026.31;4396247;32;20010;-96
2022/10/07 02:33:56;;;;;;;;;;;;;;;13.01;59.90;101027.03;4386539;32;20018;-96
2022/10/07 02:36:40;;;;;;;;;;;;;;;12.71;59.87;101034.63;4357657;32;20361;-96
2022/10/07 02:39:05;;;;;;;;;;;;;;;12.62;59.88;101029.59;4360867;32;19989;-95
2022/10/07 02:41:34;;;;;;;;;;;;;;;12.63;59.88;101031.31;4378801;32;20054;-96
2022/10/07 02:44:03;;;;;;;;;;;;;;;12.51;59.87;101042.84;4381818;32;20103;-96
2022/10/07 02:46:34;;;;;;;;;;;;;;;12.60;59.88;101032.25;4380750;32;19983;-96
2022/10/07 02:49:00;;;;;;;;;;;;;;;12.70;59.88;101032.03;4381300;32;19975;-96
2022/10/07 02:51:27;;;;;;;;;;;;;;;12.94;59.89;101031.53;4394230;32;19990;-96
2022/10/07 02:53:53;;;;;;;;;;;;;;;12.85;59.89;101029.13;4365565;32;19990;-95
2022/10/07 02:56:18;;;;;;;;;;;;;;;12.71;59.88;101024.19;4380875;32;19989;-96
2022/10/07 02:58:44;;;;;;;;;;;;;;;12.45;59.87;101029.91;4375085;32;20002;-96
2022/10/07 03:01:10;;;;;;;;;;;;;;;12.28;59.85;101026.75;4393213;32;19993;-94
2022/10/07 03:03:35;;;;;;;;;;;;;;;12.32;59.86;101027.59;4376617;32;23975;-96
2022/10/07 03:06:00;;;;;;;;;;;;;;;12.26;59.85;101032.00;4389573;32;19993;-96
2022/10/07 03:08:27;;;;;;;;;;;;;;;12.22;59.86;101025.12;4375349;32;20017;-96
2022/10/07 03:10:52;;;;;;;;;;;;;;;12.32;59.86;101030.19;4365292;32;19974;-96
2022/10/07 03:13:17;;;;;;;;;;;;;;;12.29;59.86;101024.13;4353987;32;25121;-96
2022/10/07 03:15:43;;;;;;;;;;;;;;;12.35;59.86;101027.53;4378253;32;19986;-96
2022/10/07 03:18:24;;;;;;;;;;;;;;;12.08;59.85;101028.91;4368831;32;20021;-96
2022/10/07 03:20:51;;;;;;;;;;;;;;;12.05;59.84;101023.69;4369394;32;20956;-96
2022/10/07 03:23:16;;;;;;;;;;;;;;;12.14;59.85;101028.78;4378498;32;20672;-96
2022/10/07 03:25:41;;;;;;;;;;;;;;;12.14;59.85;101021.81;4361245;32;20014;-96
2022/10/07 03:28:07;;;;;;;;;;;;;;;12.13;59.84;101025.31;4375094;32;20319;-96
2022/10/07 03:30:32;;;;;;;;;;;;;;;12.17;59.85;101024.34;4383066;32;20309;-96
2022/10/07 03:32:58;;;;;;;;;;;;;;;12.28;59.86;101022.41;4395859;32;20021;-96
2022/10/07 03:35:23;;;;;;;;;;;;;;;12.44;59.87;101020.37;4390324;32;19943;-96
2022/10/07 03:37:48;;;;;;;;;;;;;;;12.37;59.87;101018.78;4394237;32;19954;-96
2022/10/07 03:40:14;;;;;;;;;;;;;;;12.36;59.87;101027.50;4393516;32;19999;-95
2022/10/07 03:42:42;;;;;;;;;;;;;;;12.28;59.86;101032.84;4390884;32;19971;-96
2022/10/07 03:45:09;;;;;;;;;;;;;;;12.36;59.87;101027.50;4392659;32;19987;-96
2022/10/07 03:47:35;;;;;;;;;;;;;;;12.32;59.86;101023.22;4404427;32;20605;-96
2022/10/07 03:50:00;;;;;;;;;;;;;;;12.38;59.86;101015.28;4390608;32;19987;-96
2022/10/07 03:52:25;;;;;;;;;;;;;;;12.28;59.85;101018.94;4393046;32;20347;-96
2022/10/07 03:54:54;;;;;;;;;;;;;;;12.33;59.86;101022.34;4388988;32;27241;-95
2022/10/07 04:00:04;;;;;;;;;;;;;;;12.29;59.87;101018.91;4386787;32;20033;-95
2022/10/07 04:02:29;;;;;;;;;;;;;;;12.31;59.87;101010.19;4375373;32;19998;-94
2022/10/07 04:04:54;;;;;;;;;;;;;;;12.26;59.86;101023.31;4376741;32;19994;-94
2022/10/07 04:07:20;;;;;;;;;;;;;;;12.18;59.85;101015.63;4377893;32;20098;-96
2022/10/07 04:09:46;;;;;;;;;;;;;;;12.17;59.86;101011.31;4380358;32;20763;-96
2022/10/07 04:12:11;;;;;;;;;;;;;;;12.22;59.85;101013.81;4382082;32;28016;-96
2022/10/07 04:14:37;;;;;;;;;;;;;;;12.20;59.85;101007.78;4380385;32;19975;-96
2022/10/07 04:17:03;;;;;;;;;;;;;;;12.27;59.85;101011.97;4380425;32;19997;-96
2022/10/07 04:19:28;;;;;;;;;;;;;;;12.18;59.85;101010.41;4366819;32;31777;-96
2022/10/07 04:21:55;;;;;;;;;;;;;;;12.15;59.85;101020.06;4373376;32;19986;-96
2022/10/07 04:24:21;;;;;;;;;;;;;;;12.07;59.85;101001.06;4380454;32;19982;-95
2022/10/07 04:26:46;;;;;;;;;;;;;;;12.06;59.85;101001.94;4383303;32;20009;-96
2022/10/07 04:29:11;;;;;;;;;;;;;;;12.15;59.85;101000.03;4387920;32;20014;-95
2022/10/07 04:31:38;;;;;;;;;;;;;;;12.15;59.85;101007.00;4380525;32;19963;-96
2022/10/07 04:34:23;;;;;;;;;;;;;;;12.20;59.85;101005.16;4379038;32;19966;-96
2022/10/07 04:37:16;;;;;;;;;;;;;;;12.19;59.85;101001.69;4393423;32;19955;-96
2022/10/07 04:40:02;;;;;;;;;;;;;;;12.15;59.86;101000.03;4421510;27;19983;-96
2022/10/07 04:45:14;;;;;;;;;;;;;;;11.99;59.84;101004.66;4395091;32;20797;-96
2022/10/07 04:47:39;;;;;;;;;;;;;;;12.02;59.85;101003.75;4407304;32;19966;-96
2022/10/07 04:50:06;;;;;;;;;;;;;;;11.99;59.84;101002.06;4397416;32;20292;-94
2022/10/07 04:52:31;;;;;;;;;;;;;;;11.97;59.83;101009.06;4363265;32;19985;-95
2022/10/07 04:54:57;;;;;;;;;;;;;;;11.85;59.84;101014.50;4406726;32;19978;-95
2022/10/07 04:57:22;;;;;;;;;;;;;;;11.90;59.83;101017.03;4397581;32;20240;-95
2022/10/07 04:59:47;;;;;;;;;;;;;;;11.97;59.84;101014.28;4397034;32;27645;-96
2022/10/07 05:02:13;;;;;;;;;;;;;;;11.90;59.84;101015.28;4368484;32;20031;-96
2022/10/07 05:04:38;;;;;;;;;;;;;;;11.98;59.84;101015.12;4377176;32;20300;-96
2022/10/07 05:07:03;;;;;;;;;;;;;;;11.94;59.83;101019.53;4398601;32;19955;-95
2022/10/07 05:09:28;;;;;;;;;;;;;;;12.00;59.84;101010.75;4383091;32;20006;-96
2022/10/07 05:11:56;;;;;;;;;;;;;;;12.16;59.85;101014.81;4382895;32;20502;-96
2022/10/07 05:14:22;;;;;;;;;;;;;;;12.07;59.85;101021.97;4380951;32;20413;-96
2022/10/07 05:16:47;;;;;;;;;;;;;;;12.16;59.85;101021.78;4370521;32;20015;-95
2022/10/07 05:19:13;;;;;;;;;;;;;;;11.98;59.85;101026.44;4384796;32;20068;-96
2022/10/07 05:21:38;;;;;;;;;;;;;;;12.03;59.84;101028.94;4371310;32;20033;-95
2022/10/07 05:24:04;;;;;;;;;;;;;;;11.98;59.84;101030.78;4382585;32;19986;-96
2022/10/07 05:26:29;;;;;;;;;;;;;;;12.02;59.84;101036.81;4369424;32;21041;-94
2022/10/07 05:28:54;;;;;;;;;;;;;;;12.12;59.84;101028.81;4396973;32;20283;-96
2022/10/07 05:31:19;;;;;;;;;;;;;;;12.04;59.84;101030.66;4381609;32;19987;-94
2022/10/07 05:33:46;;;;;;;;;;;;;;;12.06;59.85;101025.41;4381507;32;20004;-95
2022/10/07 05:36:11;;;;;;;;;;;;;;;12.11;59.85;101031.44;4381671;32;19985;-96
2022/10/07 05:38:36;;;;;;;;;;;;;;;12.26;59.86;101025.94;4369635;32;19986;-95
2022/10/07 05:41:02;;;;;;;;;;;;;;;12.25;59.85;101037.25;4370538;32;19990;-96
2022/10/07 05:43:28;;;;;;;;;;;;;;;12.31;59.86;101033.69;4372051;32;19978;-96
2022/10/07 05:46:00;;;;;;;;;;;;;;;12.43;59.86;101020.41;4370754;32;20032;-96
2022/10/07 05:48:27;;;;;;;;;;;;;;;12.63;59.88;101025.22;4371711;32;19991;-95
2022/10/07 05:50:53;;;;;;;;;;;;;;;12.74;59.89;101025.84;4393678;32;19977;-96
2022/10/07 05:53:18;;;;;;;;;;;;;;;12.81;59.88;101023.09;4405947;32;20014;-94
2022/10/07 05:55:43;;;;;;;;;;;;;;;12.79;59.88;101026.66;4385482;32;20020;-96
2022/10/07 05:58:08;;;;;;;;;;;;;;;12.85;59.89;101023.91;4372791;32;20005;-95
2022/10/07 06:00:40;;;;;;;;;;;;;;;12.93;59.89;101028.97;4369847;32;20005;-96
2022/10/07 06:03:06;;;;;;;;;;;;;;;13.17;59.91;101026.69;4369765;32;19990;-95
2022/10/07 06:05:31;;;;;;;;;;;;;;;13.38;59.92;101029.72;4367470;32;20013;-96
2022/10/07 06:07:59;;;;;;;;;;;;;;;13.62;59.92;101031.75;4360333;32;20010;-96
2022/10/07 06:13:08;;;;;;;;;;;;;;;13.79;59.95;101036.59;4360502;32;878947;-96
2022/10/07 06:15:34;;;;;;;;;;;;;;;13.74;59.94;101043.72;4392327;32;19982;-95
2022/10/07 06:17:59;;;;;;;;;;;;;;;13.64;59.93;101044.81;4388031;32;19979;-95
2022/10/07 06:20:26;;;;;;;;;;;;;;;13.74;59.94;101043.72;4389706;32;19986;-96
2022/10/07 06:22:52;;;;;;;;;;;;;;;13.86;59.94;101034.69;4373674;32;19974;-94
2022/10/07 06:25:17;;;;;;;;;;;;;;;14.19;59.96;101035.56;4369927;32;19988;-96
2022/10/07 06:27:42;;;;;;;;;;;;;;;14.30;59.96;101026.53;4382423;32;20058;-96
2022/10/07 06:30:08;;;;;;;;;;;;;;;14.46;59.97;101036.63;4371657;32;20002;-95
2022/10/07 06:32:33;;;;;;;;;;;;;;;14.73;59.99;101028.84;4383598;32;20018;-96
2022/10/07 06:34:58;;;;;;;;;;;;;;;14.76;59.99;101029.66;4383982;32;19983;-96
2022/10/07 06:37:24;;;;;;;;;;;;;;;14.85;59.99;101034.63;4384076;32;20002;-96
2022/10/07 06:39:49;;;;;;;;;;;;;;;14.82;59.99;101019.00;4382574;32;20022;-96
2022/10/07 06:42:14;;;;;;;;;;;;;;;14.93;60.00;101023.03;4384899;32;19978;-96
2022/10/07 06:44:39;;;;;;;;;;;;;;;15.05;60.01;101025.28;4370582;32;20265;-96
2022/10/07 06:47:05;;;;;;;;;;;;;;;15.12;60.01;101014.59;4370470;32;20352;-96
2022/10/07 06:49:30;;;;;;;;;;;;;;;15.33;60.02;101013.94;4370266;32;20312;-93
2022/10/07 06:51:55;;;;;;;;;;;;;;;15.42;60.03;101007.56;4369352;32;20013;-95
2022/10/07 06:54:21;;;;;;;;;;;;;;;15.58;60.03;101017.53;4381830;32;20022;-96
2022/10/07 06:56:46;;;;;;;;;;;;;;;15.74;60.04;101012.63;4381955;32;20020;-96
2022/10/07 06:59:11;;;;;;;;;;;;;;;15.78;60.05;101019.50;4369641;32;19994;-96
2022/10/07 07:01:36;;;;;;;;;;;;;;;16.00;60.05;101018.78;4369988;32;20006;-96
2022/10/07 07:04:02;;;;;;;;;;;;;;;16.28;60.06;101002.00;4383412;32;20005;-96
2022/10/07 07:06:28;;;;;;;;;;;;;;;16.42;60.07;101005.91;4371669;32;20013;-96
2022/10/07 07:09:03;;;;;;;;;;;;;;;16.58;60.09;101010.56;4370072;32;20063;-96
2022/10/07 07:11:34;;;;;;;;;;;;;;;16.71;60.10;101010.13;4383145;32;19950;-96
2022/10/07 07:14:00;;;;;;;;;;;;;;;16.87;60.10;101014.78;4390599;32;19954;-96
2022/10/07 07:16:26;;;;;;;;;;;;;;;17.01;60.11;101010.75;4371568;32;20006;-96
2022/10/07 07:18:56;;;;;;;;;;;;;;;17.04;60.11;101010.66;4371006;32;20002;-96
2022/10/07 07:21:21;;;;;;;;;;;;;;;17.10;60.12;101011.25;4372185;32;19993;-96
2022/10/07 07:23:47;;;;;;;;;;;;;;;17.19;60.12;101007.41;4370595;32;19982;-96
2022/10/07 07:26:12;;;;;;;;;;;;;;;17.18;60.12;101003.91;4398519;32;20020;-96
2022/10/07 07:28:38;;;;;;;;;;;;;;;17.36;60.13;101002.34;4379547;32;20016;-96
2022/10/07 07:31:08;;;;;;;;;;;;;;;17.50;60.13;101007.03;4371207;32;20027;-96
2022/10/07 07:33:33;;;;;;;;;;;;;;;17.42;60.13;101003.84;4377542;32;20032;-96
2022/10/07 07:35:59;;;;;;;;;;;;;;;17.60;60.14;101000.47;4386634;32;20010;-96
2022/10/07 07:38:24;;;;;;;;;;;;;;;17.60;60.14;101002.25;4384734;32;19977;-96
2022/10/07 07:40:50;;;;;;;;;;;;;;;17.87;60.16;100995.88;4372543;32;20001;-96
2022/10/07 07:43:15;;;;;;;;;;;;;;;18.06;60.17;101006.50;4370343;32;20018;-95
2022/10/07 07:45:40;;;;;;;;;;;;;;;17.98;60.16;100998.94;4384931;32;19992;-96
2022/10/07 07:48:06;;;;;;;;;;;;;;;18.09;60.17;100999.31;4411341;32;20020;-93
2022/10/07 07:50:31;;;;;;;;;;;;;;;18.14;60.17;100992.97;4410934;32;19974;-96
2022/10/07 07:52:59;;;;;;;;;;;;;;;18.16;60.17;100991.97;4381502;32;19998;-96
2022/10/07 07:55:26;;;;;;;;;;;;;;;18.32;60.18;100992.19;4388389;32;20005;-96
2022/10/07 07:57:52;;;;;;;;;;;;;;;18.39;60.19;100996.25;4390475;32;19986;-96
2022/10/07 08:00:21;;;;;;;;;;;;;;;18.74;60.20;100988.56;4371691;32;19965;-94
2022/10/07 08:02:47;;;;;;;;;;;;;;;18.74;60.20;100984.16;4409023;32;19946;-95
2022/10/07 08:05:12;;;;;;;;;;;;;;;18.75;60.20;100985.00;4382483;32;20045;-96
2022/10/07 08:07:44;;;;;;;;;;;;;;;19.04;60.22;100981.84;4392713;32;19959;-96
2022/10/07 08:10:21;;;;;;;;;;;;;;;19.21;60.22;100976.63;4398145;32;19986;-96
2022/10/07 08:12:47;;;;;;;;;;;;;;;19.29;60.23;100978.88;4407838;32;20549;-96
2022/10/07 08:15:13;;;;;;;;;;;;;;;19.30;60.23;100973.53;4393983;32;20020;-96
2022/10/07 08:17:41;;;;;;;;;;;;;;;19.28;60.23;100977.19;4390725;32;20013;-96
2022/10/07 08:20:23;;;;;;;;;;;;;;;19.46;60.25;100968.38;4405260;32;19959;-96
2022/10/07 08:22:48;;;;;;;;;;;;;;;19.62;60.25;100968.47;4390120;32;20009;-96
2022/10/07 08:25:33;;;;;;;;;;;;;;;19.71;60.25;100968.03;4389666;32;19986;-96
2022/10/07 08:28:00;;;;;;;;;;;;;;;19.79;60.26;100964.97;4388419;32;19991;-96
2022/10/07 08:30:31;;;;;;;;;;;;;;;19.70;60.25;100965.47;4389098;32;19988;-96
2022/10/07 08:32:58;;;;;;;;;;;;;;;20.06;60.26;100968.00;4420723;32;19959;-96
2022/10/07 08:35:24;;;;;;;;;;;;;;;20.08;60.27;100961.69;4394802;32;20043;-96
2022/10/07 08:38:11;;;;;;;;;;;;;;;20.10;60.27;100961.59;4420343;32;19962;-96
2022/10/07 08:40:43;;;;;;;;;;;;;;;20.06;60.26;100960.06;4413671;32;19951;-96
2022/10/07 08:43:08;;;;;;;;;;;;;;;20.29;60.28;100954.41;4390268;32;19962;-96
2022/10/07 08:45:34;;;;;;;;;;;;;;;20.14;60.27;100953.47;4395765;32;20005;-95
2022/10/07 08:48:00;;;;;;;;;;;;;;;20.45;60.28;100946.56;4394380;32;20002;-96
2022/10/07 08:50:48;;;;;;;;;;;;;;;20.53;60.29;100942.56;4405152;32;19955;-96
2022/10/07 08:53:36;;;;;;;;;;;;;;;20.67;60.30;100941.81;4393949;32;19975;-96
2022/10/07 08:56:22;;;;;;;;;;;;;;;20.93;60.31;100944.81;4405966;32;19986;-96
2022/10/07 08:59:06;;;;;;;;;;;;;;;20.87;60.32;100943.38;4392839;32;19955;-96
2022/10/07 09:01:46;;;;;;;;;;;;;;;20.90;60.31;100932.59;4389886;32;19965;-96
2022/10/07 09:04:32;;;;;;;;;;;;;;;20.72;60.31;100930.97;4389064;32;19951;-96
2022/10/07 09:07:23;;;;;;;;;;;;;;;20.83;60.31;100936.53;4388482;32;19955;-96
2022/10/07 09:09:57;;;;;;;;;;;;;;;21.02;60.31;100925.75;4399670;32;19987;-96
2022/10/07 09:12:34;;;;;;;;;;;;;;;20.99;60.32;100925.94;4389282;32;19990;-96
2022/10/07 09:15:02;;;;;;;;;;;;;;;21.23;60.33;100921.03;4404144;32;20007;-96
2022/10/07 09:17:36;;;;;;;;;;;;;;;21.38;60.34;100918.37;4377490;32;19998;-96
2022/10/07 09:20:06;;;;;;;;;;;;;;;21.35;60.34;100921.22;4378170;32;20008;-96
2022/10/07 09:22:37;;;;;;;;;;;;;;;21.36;60.34;100911.47;4389211;32;20007;-96
2022/10/07 09:25:22;;;;;;;;;;;;;;;21.30;60.34;100920.63;4385549;32;20553;-96
2022/10/07 09:27:53;;;;;;;;;;;;;;;21.52;60.35;100916.72;4381584;32;20010;-96
2022/10/07 09:30:23;;;;;;;;;;;;;;;21.53;60.35;100914.00;4410883;32;19967;-96
2022/10/07 09:32:49;;;;;;;;;;;;;;;21.76;60.36;100904.66;4389478;32;19997;-96
2022/10/07 09:35:20;;;;;;;;;;;;;;;21.84;60.37;100901.56;4388090;32;19954;-96
2022/10/07 09:38:16;;;;;;;;;;;;;;;22.03;60.39;100899.50;4420613;32;19986;-96
2022/10/07 09:43:54;;;;;;;;;;;;;;;22.37;60.39;100892.97;4417186;32;20046;-91
2022/10/07 09:49:46;;;;;;;;;;;;;;;22.58;60.40;100886.31;4405145;32;19965;-96
2022/10/07 09:55:36;;;;;;;;;;;;;;;22.72;60.42;100874.81;4404155;32;20045;-96
2022/10/07 09:58:04;;;;;;;;;;;;;;;22.73;60.42;100873.00;4392122;32;19965;-95
2022/10/07 10:00:30;;;;;;;;;;;;;;;22.88;60.41;100872.03;4375687;32;20010;-96
2022/10/07 10:02:56;;;;;;;;;;;;;;;22.82;60.42;100870.63;4406069;32;19959;-96
2022/10/07 10:05:57;;;;;;;;;;;;;;;22.92;60.42;100862.91;4405403;32;20018;-96
2022/10/07 10:08:38;;;;;;;;;;;;;;;23.06;60.43;100862.00;4393631;32;19958;-96
2022/10/07 10:11:32;;;;;;;;;;;;;;;23.12;60.44;100853.63;4395749;32;19966;-94
2022/10/07 10:14:05;;;;;;;;;;;;;;;23.01;60.42;100845.53;4392427;32;19973;-96
2022/10/07 10:16:36;;;;;;;;;;;;;;;22.90;60.42;100854.19;4386451;32;19996;-96
2022/10/07 10:19:24;;;;;;;;;;;;;;;23.08;60.42;100846.81;4409509;32;19977;-96
2022/10/07 10:22:03;;;;;;;;;;;;;;;23.16;60.43;100844.50;4414884;32;19978;-96
2022/10/07 10:27:34;;;;;;;;;;;;;;;23.19;60.45;100849.63;4406961;32;19965;-96
2022/10/07 10:30:20;;;;;;;;;;;;;;;23.47;60.45;100837.97;4392572;32;19955;-96
2022/10/07 10:33:06;;;;;;;;;;;;;;;23.67;60.47;100826.03;4403583;32;19974;-95
2022/10/07 10:35:51;;;;;;;;;;;;;;;23.78;60.47;100826.94;4420494;32;19962;-96
2022/10/07 10:38:42;;;;;;;;;;;;;;;24.02;60.48;100821.72;4394536;32;19946;-96
2022/10/07 10:57:54;;;;;;;;;;;;;;;24.44;60.50;100787.69;4321150;27;20867;-84
2022/10/07 11:00:20;;;;;;;;;;;;;;;24.33;60.50;100783.13;4373540;32;19991;-84
2022/10/07 11:03:03;;;;;;;;;;;;;;;24.28;60.50;100785.28;4361062;32;20006;-84
2022/10/07 11:05:39;;;;;;;;;;;;;;;24.35;60.50;100775.03;4348510;32;20126;-85
2022/10/07 11:08:04;;;;;;;;;;;;;;;24.71;60.52;100769.66;4362105;32;20007;-84
2022/10/07 11:10:56;;;;;;;;;;;;;;;24.49;60.51;100769.56;4375313;32;20010;-85
2022/10/07 11:13:24;;;;;;;;;;;;;;;24.33;60.50;100767.16;4354050;32;20038;-85
2022/10/07 11:15:55;;;;;;;;;;;;;;;24.39;60.51;100758.75;4375444;32;20005;-84
2022/10/07 11:18:29;;;;;;;;;;;;;;;24.34;60.50;100754.72;4368833;32;20098;-85
2022/10/07 11:20:54;;;;;;;;;;;;;;;24.55;60.51;100746.97;4362892;32;20017;-85
2022/10/07 11:23:19;;;;;;;;;;;;;;;24.49;60.51;100741.13;4361950;32;34719;-85
2022/10/07 11:26:05;;;;;;;;;;;;;;;24.57;60.51;100739.72;4374586;32;20407;-82
2022/10/07 11:28:31;;;;;;;;;;;;;;;24.52;60.52;100734.72;4375224;32;19982;-84
2022/10/07 11:31:01;;;;;;;;;;;;;;;24.63;60.52;100729.47;4373460;32;19983;-84
2022/10/07 11:33:56;;;;;;;;;;;;;;;24.94;60.53;100722.66;4378684;32;20002;-83
2022/10/07 11:36:31;;;;;;;;;;;;;;;25.08;60.54;100719.84;4383720;32;20601;-83
2022/10/07 11:38:57;;;;;;;;;;;;;;;25.28;60.55;100712.94;4363762;32;20510;-84
2022/10/07 11:41:28;;;;;;;;;;;;;;;25.34;60.56;100703.62;4363675;32;20011;-84
2022/10/07 11:43:55;;;;;;;;;;;;;;;25.56;60.56;100703.62;4377259;32;19983;-85
2022/10/07 11:46:23;;;;;;;;;;;;;;;25.53;60.56;100701.19;4376924;32;20009;-85
2022/10/07 11:48:51;;;;;;;;;;;;;;;25.66;60.57;100695.72;4376762;32;20000;-85
2022/10/07 11:51:23;;;;;;;;;;;;;;;25.51;60.56;100696.94;4362451;32;20316;-84
2022/10/07 11:53:49;;;;;;;;;;;;;;;25.33;60.56;100694.78;4377352;32;19979;-84
2022/10/07 11:56:16;;;;;;;;;;;;;;;25.36;60.55;100681.22;4362866;32;20003;-85
2022/10/07 11:58:43;;;;;;;;;;;;;;;25.49;60.57;100680.22;4363470;32;19982;-84
2022/10/07 12:01:31;;;;;;;;;;;;;;;25.44;60.55;100674.41;4363438;32;19975;-84
2022/10/07 12:03:58;;;;;;;;;;;;;;;25.45;60.55;100676.12;4372103;32;19976;-85
2022/10/07 12:06:24;;;;;;;;;;;;;;;25.58;60.57;100672.38;4377516;32;19991;-84
2022/10/07 12:08:50;;;;;;;;;;;;;;;25.72;60.58;100670.41;4350232;32;32882;-84
2022/10/07 12:11:19;;;;;;;;;;;;;;;25.73;60.58;100667.63;4376776;32;20496;-85
2022/10/07 12:13:48;;;;;;;;;;;;;;;25.70;60.58;100662.53;4377508;32;20317;-84
2022/10/07 12:16:22;;;;;;;;;;;;;;;25.80;60.58;100660.00;4360806;32;20037;-85
2022/10/07 12:19:05;;;;;;;;;;;;;;;25.80;60.58;100655.50;4371569;32;20363;-84
2022/10/07 12:21:50;;;;;;;;;;;;;;;25.61;60.58;100658.78;4363351;32;19990;-85
2022/10/07 12:24:15;;;;;;;;;;;;;;;25.73;60.58;100642.78;4376961;32;20281;-84
2022/10/07 12:26:41;;;;;;;;;;;;;;;25.76;60.57;100646.03;4363501;32;19993;-85
2022/10/07 12:29:12;;;;;;;;;;;;;;;25.73;60.58;100646.28;4363473;32;20009;-85
2022/10/07 12:31:41;;;;;;;;;;;;;;;25.83;60.58;100628.59;4363167;32;20313;-85
2022/10/07 12:34:08;;;;;;;;;;;;;;;25.96;60.59;100629.25;4363499;32;20461;-84
2022/10/07 12:36:34;;;;;;;;;;;;;;;25.97;60.59;100632.78;4377154;32;19987;-85
2022/10/07 12:38:59;;;;;;;;;;;;;;;25.92;60.58;100622.50;4377554;32;19983;-85
2022/10/07 12:41:34;;;;;;;;;;;;;;;25.93;60.60;100616.19;4363469;32;20332;-85
2022/10/07 12:44:18;;;;;;;;;;;;;;;25.91;60.58;100623.47;4377607;32;20349;-85
2022/10/07 12:46:51;;;;;;;;;;;;;;;25.75;60.58;100616.84;4367130;32;19999;-85
2022/10/07 12:49:28;;;;;;;;;;;;;;;25.58;60.57;100620.84;4366275;32;19991;-85
2022/10/07 12:51:54;;;;;;;;;;;;;;;25.62;60.58;100614.31;4377196;32;19978;-85
2022/10/07 12:54:28;;;;;;;;;;;;;;;25.68;60.58;100613.81;4363558;32;20017;-85
2022/10/07 12:56:54;;;;;;;;;;;;;;;25.47;60.57;100620.84;4348171;32;19999;-85
2022/10/07 12:59:46;;;;;;;;;;;;;;;25.51;60.57;100617.81;4369508;32;31740;-85
2022/10/07 13:02:21;;;;;;;;;;;;;;;25.58;60.57;100610.19;4377412;32;20379;-85
2022/10/07 13:04:46;;;;;;;;;;;;;;;25.74;60.58;100601.81;4377638;32;20000;-85
2022/10/07 13:07:24;;;;;;;;;;;;;;;25.47;60.58;100604.88;4363105;32;20557;-84
2022/10/07 13:09:53;;;;;;;;;;;;;;;25.28;60.55;100598.34;4377112;32;19994;-85
2022/10/07 13:12:18;;;;;;;;;;;;;;;25.24;60.56;100596.91;4363155;32;19994;-84
2022/10/07 13:14:47;;;;;;;;;;;;;;;25.31;60.56;100591.91;4363222;32;20011;-85
2022/10/07 13:17:34;;;;;;;;;;;;;;;25.23;60.56;100589.87;4377011;32;20067;-85
2022/10/07 13:20:24;;;;;;;;;;;;;;;25.10;60.55;100591.84;4376857;32;20003;-85
2022/10/07 13:22:49;;;;;;;;;;;;;;;25.02;60.55;100586.25;4363187;32;19975;-85
2022/10/07 13:25:16;;;;;;;;;;;;;;;25.17;60.56;100579.72;4363147;32;20308;-84